createdAt,value
2018-10-12T00:00:14.209Z,14.40
2018-10-12T00:02:42.938Z,14.30
2018-10-12T00:05:11.237Z,14.20
2018-10-12T00:07:39.117Z,14.30
2018-10-12T00:10:06.876Z,14.30
2018-10-12T00:15:08.955Z,14.20
2018-10-12T00:17:36.583Z,14.20
2018-10-12T00:20:04.516Z,14.20
2018-10-12T00:22:32.119Z,14.20
2018-10-12T00:24:59.812Z,14.10
2018-10-12T00:27:27.466Z,14.20
2018-10-12T00:29:55.121Z,14.10
2018-10-12T00:32:29.425Z,14.20
2018-10-12T00:34:57.161Z,14.10
2018-10-12T00:37:24.819Z,14.00
2018-10-12T00:39:52.480Z,14.00
2018-10-12T00:42:20.094Z,14.10
2018-10-12T00:44:47.737Z,14.20
2018-10-12T00:47:15.438Z,14.30
2018-10-12T00:49:43.092Z,14.30
2018-10-12T00:52:10.750Z,14.40
2018-10-12T00:54:38.390Z,14.30
2018-10-12T00:57:06.074Z,14.20
2018-10-12T00:59:33.730Z,14.10
2018-10-12T01:02:01.415Z,14.20
2018-10-12T01:04:29.031Z,14.20
2018-10-12T01:06:56.723Z,14.20
2018-10-12T01:09:24.384Z,14.30
2018-10-12T01:11:56.516Z,14.40
2018-10-12T01:14:24.199Z,14.40
2018-10-12T01:16:51.909Z,14.40
2018-10-12T01:19:19.523Z,14.40
2018-10-12T01:21:47.215Z,14.40
2018-10-12T01:24:14.883Z,14.50
2018-10-12T01:26:42.547Z,14.50
2018-10-12T01:29:10.191Z,14.40
2018-10-12T01:31:37.872Z,14.40
2018-10-12T01:34:05.495Z,14.40
2018-10-12T01:36:33.197Z,14.40
2018-10-12T01:39:00.887Z,14.50
2018-10-12T01:41:28.511Z,14.50
2018-10-12T01:43:56.158Z,14.60
2018-10-12T01:46:23.842Z,14.60
2018-10-12T01:48:51.463Z,14.60
2018-10-12T01:51:19.141Z,14.60
2018-10-12T01:53:46.827Z,14.60
2018-10-12T01:56:14.463Z,14.60
2018-10-12T01:58:42.159Z,14.60
2018-10-12T02:01:09.773Z,14.60
2018-10-12T02:03:37.431Z,14.60
2018-10-12T02:06:05.133Z,14.60
2018-10-12T02:08:32.778Z,14.60
2018-10-12T02:11:00.462Z,14.60
2018-10-12T02:13:28.122Z,14.70
2018-10-12T02:15:56.728Z,14.70
2018-10-12T02:18:24.869Z,14.70
2018-10-12T02:20:52.551Z,14.70
2018-10-12T02:23:20.399Z,14.70
2018-10-12T02:25:48.128Z,14.70
2018-10-12T02:28:15.972Z,14.70
2018-10-12T02:30:43.690Z,14.70
2018-10-12T02:33:11.343Z,14.70
2018-10-12T02:35:39.055Z,14.60
2018-10-12T02:38:06.980Z,14.70
2018-10-12T02:40:34.784Z,14.60
2018-10-12T02:43:02.634Z,14.60
2018-10-12T02:45:30.417Z,14.60
2018-10-12T02:47:58.047Z,14.60
2018-10-12T02:50:25.707Z,14.60
2018-10-12T02:52:55.801Z,14.50
2018-10-12T02:55:24.019Z,14.40
2018-10-12T02:57:51.777Z,14.40
2018-10-12T03:00:19.408Z,14.40
2018-10-12T03:02:47.096Z,14.30
2018-10-12T03:05:14.772Z,14.30
2018-10-12T03:07:42.405Z,14.20
2018-10-12T03:10:10.076Z,14.20
2018-10-12T03:12:37.736Z,14.20
2018-10-12T03:15:12.219Z,14.20
2018-10-12T03:17:39.931Z,14.20
2018-10-12T03:20:07.596Z,14.10
2018-10-12T03:22:35.249Z,14.10
2018-10-12T03:25:02.937Z,14.00
2018-10-12T03:27:30.716Z,14.00
2018-10-12T03:29:58.322Z,14.00
2018-10-12T03:32:26.147Z,14.00
2018-10-12T03:34:53.787Z,13.90
2018-10-12T03:37:21.561Z,13.90
2018-10-12T03:39:49.190Z,13.90
2018-10-12T03:42:16.862Z,13.90
2018-10-12T03:44:44.518Z,13.80
2018-10-12T03:47:12.182Z,13.80
2018-10-12T03:49:39.862Z,13.70
2018-10-12T03:52:09.133Z,13.70
2018-10-12T03:54:36.824Z,13.60
2018-10-12T03:57:04.459Z,13.50
2018-10-12T03:59:32.114Z,13.50
2018-10-12T04:02:00.112Z,13.50
2018-10-12T04:04:27.747Z,13.40
2018-10-12T04:06:55.416Z,13.40
2018-10-12T04:09:23.085Z,13.30
2018-10-12T04:11:50.737Z,13.30
2018-10-12T04:14:18.415Z,13.30
2018-10-12T04:16:46.051Z,13.20
2018-10-12T04:19:13.741Z,13.20
2018-10-12T04:21:41.373Z,13.20
2018-10-12T04:24:09.055Z,13.20
2018-10-12T04:26:36.715Z,13.10
2018-10-12T04:29:04.505Z,13.10
2018-10-12T04:31:32.131Z,13.00
2018-10-12T04:33:59.810Z,13.00
2018-10-12T04:36:27.454Z,13.00
2018-10-12T04:39:00.988Z,13.00
2018-10-12T04:41:29.954Z,13.00
2018-10-12T04:43:59.388Z,12.90
2018-10-12T04:46:33.420Z,12.80
2018-10-12T04:49:01.173Z,12.80
2018-10-12T04:51:35.296Z,12.70
2018-10-12T04:54:02.961Z,12.60
2018-10-12T04:56:30.599Z,12.50
2018-10-12T04:58:58.311Z,12.50
2018-10-12T05:01:26.052Z,12.50
2018-10-12T05:03:53.709Z,12.50
2018-10-12T05:06:21.354Z,12.40
2018-10-12T05:08:49.052Z,12.40
2018-10-12T05:11:16.699Z,12.40
2018-10-12T05:13:44.406Z,12.40
2018-10-12T05:16:12.104Z,12.40
2018-10-12T05:18:39.733Z,12.40
2018-10-12T05:21:07.411Z,12.40
2018-10-12T05:23:35.091Z,12.40
2018-10-12T05:26:02.751Z,12.40
2018-10-12T05:28:32.373Z,12.30
2018-10-12T05:30:59.987Z,12.40
2018-10-12T05:33:27.673Z,12.40
2018-10-12T05:35:55.384Z,12.30
2018-10-12T05:38:23.834Z,12.30
2018-10-12T05:40:51.453Z,12.40
2018-10-12T05:43:19.227Z,12.30
2018-10-12T05:45:47.517Z,12.30
2018-10-12T05:48:20.796Z,12.20
2018-10-12T05:50:48.552Z,12.20
2018-10-12T05:53:16.365Z,12.20
2018-10-12T05:55:44.071Z,12.10
2018-10-12T05:58:11.684Z,12.10
2018-10-12T06:00:39.356Z,12.00
2018-10-12T06:03:07.007Z,12.10
2018-10-12T06:05:34.660Z,12.20
2018-10-12T06:08:02.318Z,12.20
2018-10-12T06:10:30.282Z,12.20
2018-10-12T06:12:57.939Z,12.20
2018-10-12T06:15:25.800Z,12.30
2018-10-12T06:17:53.512Z,12.40
2018-10-12T06:20:21.133Z,12.40
2018-10-12T06:22:48.782Z,12.50
2018-10-12T06:25:16.486Z,12.50
2018-10-12T06:27:44.103Z,12.60
2018-10-12T06:30:11.780Z,12.70
2018-10-12T06:32:39.502Z,12.80
2018-10-12T06:35:07.156Z,12.80
2018-10-12T06:37:34.951Z,13.00
2018-10-12T06:40:02.627Z,13.20
2018-10-12T06:42:30.331Z,13.50
2018-10-12T06:44:57.968Z,13.80
2018-10-12T06:47:25.644Z,14.10
2018-10-12T06:49:53.270Z,14.40
2018-10-12T06:52:20.986Z,14.60
2018-10-12T06:56:11.748Z,15.50
2018-10-12T06:58:40.091Z,15.40
2018-10-12T07:01:08.595Z,15.40
2018-10-12T07:03:36.991Z,15.40
2018-10-12T07:06:05.421Z,15.60
2018-10-12T07:08:37.882Z,15.70
2018-10-12T07:11:07.442Z,15.80
2018-10-12T07:13:40.157Z,16.10
2018-10-12T07:16:12.771Z,16.20
2018-10-12T07:18:41.306Z,16.40
2018-10-12T07:21:09.722Z,16.60
2018-10-12T07:23:38.148Z,16.80
2018-10-12T07:26:06.792Z,17.00
2018-10-12T07:28:35.403Z,17.10
2018-10-12T07:31:03.815Z,17.30
2018-10-12T07:33:32.353Z,17.40
2018-10-12T07:36:01.164Z,17.30
2018-10-12T07:38:29.225Z,17.40
2018-10-12T07:40:57.599Z,17.60
2018-10-12T07:43:25.959Z,17.70
2018-10-12T07:45:54.371Z,17.80
2018-10-12T07:48:22.754Z,18.00
2018-10-12T07:50:51.110Z,17.90
2018-10-12T07:53:19.554Z,17.80
2018-10-12T07:55:47.900Z,17.90
2018-10-12T07:58:16.249Z,18.30
2018-10-12T08:00:44.671Z,18.50
2018-10-12T08:03:14.099Z,18.70
2018-10-12T08:05:42.580Z,18.90
2018-10-12T08:08:11.077Z,18.90
2018-10-12T08:10:39.491Z,19.00
2018-10-12T08:13:07.853Z,18.80
2018-10-12T08:15:37.406Z,18.70
2018-10-12T08:18:07.187Z,18.90
2018-10-12T08:20:35.700Z,18.60
2018-10-12T08:23:04.142Z,18.80
2018-10-12T08:25:32.601Z,19.30
2018-10-12T08:28:01.331Z,19.10
2018-10-12T08:30:29.697Z,19.40
2018-10-12T08:32:58.158Z,19.80
2018-10-12T08:35:26.670Z,20.10
2018-10-12T08:37:55.051Z,20.10
2018-10-12T08:40:23.478Z,20.20
2018-10-12T08:42:51.959Z,20.30
2018-10-12T08:45:20.455Z,19.90
2018-10-12T08:47:48.888Z,20.30
2018-10-12T08:50:17.328Z,20.40
2018-10-12T08:52:45.757Z,20.10
2018-10-12T08:55:14.132Z,20.50
2018-10-12T08:57:43.555Z,20.70
2018-10-12T09:00:12.689Z,20.90
2018-10-12T09:02:41.071Z,21.20
2018-10-12T09:05:09.568Z,21.30
2018-10-12T09:07:39.033Z,21.20
2018-10-12T09:10:07.907Z,20.90
2018-10-12T09:12:36.783Z,21.00
2018-10-12T09:15:05.262Z,21.30
2018-10-12T09:17:36.840Z,21.40
2018-10-12T09:20:05.521Z,21.40
2018-10-12T09:22:33.855Z,21.00
2018-10-12T09:25:02.236Z,21.20
2018-10-12T09:27:30.631Z,21.30
2018-10-12T09:29:58.988Z,21.40
2018-10-12T09:32:27.368Z,22.00
2018-10-12T09:34:55.788Z,22.30
2018-10-12T09:37:24.128Z,21.70
2018-10-12T09:39:52.925Z,21.60
2018-10-12T09:42:21.291Z,21.90
2018-10-12T09:44:50.119Z,22.20
2018-10-12T09:47:18.469Z,22.00
2018-10-12T09:49:46.814Z,22.20
2018-10-12T09:52:15.243Z,22.40
2018-10-12T09:54:43.660Z,22.60
2018-10-12T09:57:17.342Z,22.80
2018-10-12T09:59:45.839Z,23.30
2018-10-12T10:02:19.513Z,23.60
2018-10-12T10:04:47.844Z,23.90
2018-10-12T10:07:16.272Z,24.20
2018-10-12T10:09:44.614Z,24.20
2018-10-12T10:12:13.092Z,24.30
2018-10-12T10:14:41.520Z,24.30
2018-10-12T10:17:09.902Z,24.40
2018-10-12T10:19:38.364Z,24.40
2018-10-12T10:22:06.768Z,24.20
2018-10-12T10:24:35.189Z,24.50
2018-10-12T10:27:03.612Z,24.60
2018-10-12T10:29:31.956Z,24.70
2018-10-12T10:32:00.463Z,25.00
2018-10-12T10:34:28.814Z,25.20
2018-10-12T10:36:57.197Z,25.30
2018-10-12T10:39:25.627Z,25.20
2018-10-12T10:41:54.043Z,25.20
2018-10-12T10:44:22.511Z,24.60
2018-10-12T10:46:50.951Z,24.70
2018-10-12T10:49:19.330Z,25.10
2018-10-12T10:51:47.730Z,24.80
2018-10-12T10:54:16.156Z,24.60
2018-10-12T10:56:44.561Z,24.80
2018-10-12T10:59:12.928Z,25.00
2018-10-12T11:01:41.300Z,25.10
2018-10-12T11:04:09.798Z,25.20
2018-10-12T11:06:38.296Z,25.30
2018-10-12T11:09:08.151Z,25.30
2018-10-12T11:11:36.613Z,25.30
2018-10-12T11:14:05.099Z,25.30
2018-10-12T11:16:33.530Z,25.40
2018-10-12T11:19:01.927Z,25.30
2018-10-12T11:21:30.264Z,24.90
2018-10-12T11:23:58.678Z,24.90
2018-10-12T11:26:27.080Z,25.10
2018-10-12T11:28:55.436Z,25.10
2018-10-12T11:31:23.798Z,25.20
2018-10-12T11:33:52.234Z,24.80
2018-10-12T11:36:20.664Z,24.80
2018-10-12T11:38:49.043Z,24.60
2018-10-12T11:41:17.441Z,24.50
2018-10-12T11:43:45.836Z,24.60
2018-10-12T11:46:14.248Z,24.80
2018-10-12T11:48:42.977Z,24.90
2018-10-12T11:51:11.347Z,24.90
2018-10-12T11:53:39.729Z,24.90
2018-10-12T11:56:08.120Z,24.80
2018-10-12T11:58:36.456Z,25.00
2018-10-12T12:01:04.966Z,24.90
2018-10-12T12:03:33.345Z,24.90
2018-10-12T12:06:01.881Z,25.00
2018-10-12T12:08:30.291Z,25.00
2018-10-12T12:10:58.708Z,25.00
2018-10-12T12:13:27.133Z,25.00
2018-10-12T12:15:55.776Z,25.00
2018-10-12T12:18:24.925Z,25.00
2018-10-12T12:20:53.386Z,25.00
2018-10-12T12:23:21.912Z,25.10
2018-10-12T12:25:50.419Z,25.30
2018-10-12T12:28:18.884Z,25.10
2018-10-12T12:30:47.296Z,25.10
2018-10-12T12:33:15.811Z,25.20
2018-10-12T12:35:44.536Z,25.20
2018-10-12T12:38:12.576Z,25.30
2018-10-12T12:40:40.893Z,25.20
2018-10-12T12:43:09.323Z,25.20
2018-10-12T12:45:37.740Z,25.10
2018-10-12T12:48:06.211Z,25.00
2018-10-12T12:50:34.615Z,25.00
2018-10-12T12:53:02.958Z,25.10
2018-10-12T12:55:31.353Z,25.10
2018-10-12T12:57:59.724Z,25.10
2018-10-12T13:00:28.128Z,25.10
2018-10-12T13:02:56.471Z,25.10
2018-10-12T13:05:24.850Z,25.20
2018-10-12T13:07:53.275Z,25.20
2018-10-12T13:10:21.632Z,25.20
2018-10-12T13:12:50.051Z,25.10
2018-10-12T13:15:18.486Z,25.00
2018-10-12T13:17:46.858Z,25.10
2018-10-12T13:20:15.223Z,25.10
2018-10-12T13:22:43.584Z,25.10
2018-10-12T13:25:12.125Z,25.10
2018-10-12T13:27:40.462Z,25.10
2018-10-12T13:30:08.859Z,25.00
2018-10-12T13:32:37.215Z,25.10
2018-10-12T13:35:06.452Z,25.00
2018-10-12T13:37:34.897Z,24.90
2018-10-12T13:40:03.355Z,25.00
2018-10-12T13:42:31.803Z,25.00
2018-10-12T13:45:00.172Z,24.90
2018-10-12T13:47:28.565Z,25.10
2018-10-12T13:49:56.932Z,25.10
2018-10-12T13:52:25.299Z,25.00
2018-10-12T13:54:53.724Z,25.00
2018-10-12T13:57:22.175Z,24.90
2018-10-12T13:59:50.603Z,24.80
2018-10-12T14:02:19.054Z,24.80
2018-10-12T14:04:59.427Z,24.80
2018-10-12T14:07:28.156Z,24.80
2018-10-12T14:09:56.580Z,24.90
2018-10-12T14:12:25.133Z,24.80
2018-10-12T14:14:53.402Z,24.70
2018-10-12T14:17:21.820Z,24.70
2018-10-12T14:19:53.317Z,24.70
2018-10-12T14:22:22.738Z,24.70
2018-10-12T14:24:51.143Z,24.70
2018-10-12T14:27:19.611Z,24.70
2018-10-12T14:29:47.994Z,24.60
2018-10-12T14:32:16.397Z,24.60
2018-10-12T14:34:44.839Z,24.60
2018-10-12T14:37:13.228Z,24.70
2018-10-12T14:39:41.588Z,24.60
2018-10-12T14:42:10.159Z,24.70
2018-10-12T14:44:38.646Z,24.70
2018-10-12T14:47:07.076Z,24.70
2018-10-12T14:49:35.418Z,24.60
2018-10-12T14:52:03.900Z,24.50
2018-10-12T14:54:32.303Z,24.70
2018-10-12T14:57:00.965Z,24.60
2018-10-12T14:59:29.436Z,24.50
2018-10-12T15:01:58.036Z,24.50
2018-10-12T15:04:26.492Z,24.50
2018-10-12T15:06:54.950Z,24.50
2018-10-12T15:09:23.393Z,24.40
2018-10-12T15:11:52.165Z,24.40
2018-10-12T15:14:33.544Z,24.30
2018-10-12T15:17:03.050Z,24.30
2018-10-12T15:19:31.657Z,24.30
2018-10-12T15:22:00.245Z,24.20
2018-10-12T15:24:28.647Z,24.10
2018-10-12T15:26:57.058Z,24.10
2018-10-12T15:29:25.539Z,24.10
2018-10-12T15:31:54.113Z,24.10
2018-10-12T15:34:22.627Z,24.00
2018-10-12T15:36:51.173Z,24.10
2018-10-12T15:39:19.621Z,24.10
2018-10-12T15:41:48.153Z,24.10
2018-10-12T15:44:16.560Z,24.00
2018-10-12T15:46:46.075Z,23.90
2018-10-12T15:49:14.896Z,24.00
2018-10-12T15:51:43.379Z,23.90
2018-10-12T15:54:12.058Z,23.80
2018-10-12T15:56:40.564Z,23.70
2018-10-12T15:59:09.404Z,23.60
2018-10-12T16:01:37.806Z,23.60
2018-10-12T16:04:06.333Z,23.60
2018-10-12T16:06:35.109Z,23.50
2018-10-12T16:09:04.720Z,23.40
2018-10-12T16:11:33.127Z,23.30
2018-10-12T16:14:01.680Z,23.20
2018-10-12T16:16:30.081Z,23.00
2018-10-12T16:18:58.548Z,22.90
2018-10-12T16:21:27.708Z,22.70
2018-10-12T16:23:56.181Z,22.60
2018-10-12T16:26:24.931Z,22.50
2018-10-12T16:28:53.375Z,22.40
2018-10-12T16:31:21.766Z,22.30
2018-10-12T16:33:50.172Z,22.20
2018-10-12T16:36:18.787Z,22.10
2018-10-12T16:38:47.101Z,22.00
2018-10-12T16:41:15.511Z,21.80
2018-10-12T16:43:44.360Z,21.70
2018-10-12T16:46:12.768Z,21.50
2018-10-12T16:48:41.258Z,21.40
2018-10-12T16:51:09.637Z,21.30
2018-10-12T16:53:38.094Z,21.30
2018-10-12T16:56:06.647Z,21.20
2018-10-12T16:58:35.075Z,21.10
2018-10-12T17:01:03.471Z,20.90
2018-10-12T17:03:31.887Z,20.80
2018-10-12T17:06:00.358Z,20.70
2018-10-12T17:08:28.723Z,20.60
2018-10-12T17:10:57.151Z,20.50
2018-10-12T17:13:25.592Z,20.40
2018-10-12T17:15:54.036Z,20.40
2018-10-12T17:18:22.467Z,20.30
2018-10-12T17:20:50.804Z,20.20
2018-10-12T17:23:19.222Z,20.10
2018-10-12T17:25:47.570Z,20.00
2018-10-12T17:28:16.190Z,20.00
2018-10-12T17:30:44.706Z,19.90
2018-10-12T17:33:13.120Z,19.80
2018-10-12T17:35:41.480Z,19.80
2018-10-12T17:38:09.890Z,19.70
2018-10-12T17:40:38.336Z,19.60
2018-10-12T17:43:06.581Z,19.50
2018-10-12T17:45:34.918Z,19.40
2018-10-12T17:48:03.333Z,19.40
2018-10-12T17:50:31.774Z,19.30
2018-10-12T17:53:00.144Z,19.20
2018-10-12T17:55:28.555Z,19.10
2018-10-12T17:57:56.868Z,19.00
2018-10-12T18:00:25.350Z,19.00
2018-10-12T18:02:54.049Z,18.90
2018-10-12T18:05:22.520Z,18.90
2018-10-12T18:07:50.941Z,18.80
2018-10-12T18:10:19.312Z,18.80
2018-10-12T18:12:47.684Z,18.70
2018-10-12T18:15:16.081Z,18.60
2018-10-12T18:17:44.458Z,18.60
2018-10-12T18:20:13.109Z,18.60
2018-10-12T18:22:41.693Z,18.50
2018-10-12T18:25:10.183Z,18.40
2018-10-12T18:27:38.643Z,18.30
2018-10-12T18:30:07.134Z,18.30
2018-10-12T18:32:35.528Z,18.20
2018-10-12T18:35:03.960Z,18.10
2018-10-12T18:37:32.359Z,18.10
2018-10-12T18:40:00.815Z,18.00
2018-10-12T18:42:29.238Z,18.00
2018-10-12T18:44:57.658Z,17.90
2018-10-12T18:47:26.063Z,17.90
2018-10-12T18:49:54.510Z,17.80
2018-10-12T18:52:22.935Z,17.80
2018-10-12T18:54:51.360Z,17.70
2018-10-12T18:57:19.744Z,17.70
2018-10-12T18:59:48.228Z,17.60
2018-10-12T19:02:16.732Z,17.50
2018-10-12T19:04:45.200Z,17.50
2018-10-12T19:07:13.456Z,17.30
2018-10-12T19:09:41.832Z,17.20
2018-10-12T19:12:10.348Z,17.20
2018-10-12T19:14:38.673Z,17.10
2018-10-12T19:17:07.142Z,17.00
2018-10-12T19:19:35.523Z,17.00
2018-10-12T19:22:03.896Z,17.00
2018-10-12T19:24:32.517Z,16.90
2018-10-12T19:27:00.960Z,16.90
2018-10-12T19:29:29.753Z,16.90
2018-10-12T19:31:58.255Z,16.90
2018-10-12T19:34:26.564Z,16.80
2018-10-12T19:36:55.012Z,16.80
2018-10-12T19:39:23.424Z,16.70
2018-10-12T19:41:51.782Z,16.70
2018-10-12T19:44:20.207Z,16.70
2018-10-12T19:46:48.647Z,16.60
2018-10-12T19:49:17.048Z,16.60
2018-10-12T19:51:45.445Z,16.60
2018-10-12T19:54:13.976Z,16.50
2018-10-12T19:56:42.384Z,16.40
2018-10-12T19:59:10.930Z,16.40
2018-10-12T20:01:39.297Z,16.30
2018-10-12T20:04:07.643Z,16.20
2018-10-12T20:06:36.104Z,16.20
2018-10-12T20:09:05.576Z,16.10
2018-10-12T20:11:34.241Z,16.10
2018-10-12T20:14:02.664Z,16.10
2018-10-12T20:16:31.036Z,16.10
2018-10-12T20:18:59.406Z,16.10
2018-10-12T20:21:27.904Z,16.00
2018-10-12T20:23:56.316Z,15.90
2018-10-12T20:26:24.656Z,15.90
2018-10-12T20:28:53.031Z,15.90
2018-10-12T20:31:21.725Z,15.80
2018-10-12T20:33:50.207Z,15.80
2018-10-12T20:36:18.627Z,15.80
2018-10-12T20:38:47.137Z,15.80
2018-10-12T20:41:15.528Z,15.70
2018-10-12T20:43:44.008Z,15.60
2018-10-12T20:46:13.127Z,15.60
2018-10-12T20:48:41.564Z,15.50
2018-10-12T20:51:10.013Z,15.50
2018-10-12T20:53:38.484Z,15.60
2018-10-12T20:56:07.516Z,15.60
2018-10-12T20:58:38.377Z,15.50
2018-10-12T21:01:09.539Z,15.50
2018-10-12T21:03:38.208Z,15.50
2018-10-12T21:06:07.642Z,15.50
2018-10-12T21:08:36.394Z,15.50
2018-10-12T21:11:04.905Z,15.40
2018-10-12T21:13:33.257Z,15.40
2018-10-12T21:16:01.655Z,15.40
2018-10-12T21:18:30.000Z,15.30
2018-10-12T21:20:58.436Z,15.20
2018-10-12T21:23:26.874Z,15.20
2018-10-12T21:25:55.325Z,15.20
2018-10-12T21:28:24.413Z,15.20
2018-10-12T21:30:52.792Z,15.10
2018-10-12T21:33:21.277Z,15.10
2018-10-12T21:35:49.798Z,14.90
2018-10-12T21:38:18.248Z,14.80
2018-10-12T21:40:46.709Z,14.70
2018-10-12T21:43:15.163Z,14.60
2018-10-12T21:45:43.543Z,14.60
2018-10-12T21:48:12.482Z,14.60
2018-10-12T21:50:41.020Z,14.60
2018-10-12T21:53:09.335Z,14.50
2018-10-12T21:55:37.881Z,14.50
2018-10-12T21:58:06.641Z,14.50
2018-10-12T22:00:35.086Z,14.50
2018-10-12T22:03:03.604Z,14.40
2018-10-12T22:05:32.300Z,14.30
2018-10-12T22:08:00.716Z,14.30
2018-10-12T22:10:29.131Z,14.20
2018-10-12T22:12:57.571Z,14.20
2018-10-12T22:15:25.931Z,14.20
2018-10-12T22:17:54.328Z,14.20
2018-10-12T22:20:22.684Z,14.20
2018-10-12T22:22:51.100Z,14.10
2018-10-12T22:25:19.423Z,14.10
2018-10-12T22:27:47.844Z,14.10
2018-10-12T22:30:16.238Z,14.10
2018-10-12T22:32:44.597Z,14.00
2018-10-12T22:35:12.956Z,14.00
2018-10-12T22:37:41.413Z,14.00
2018-10-12T22:40:09.837Z,13.90
2018-10-12T22:42:38.293Z,13.90
2018-10-12T22:45:06.716Z,13.90
2018-10-12T22:47:35.062Z,13.90
2018-10-12T22:50:03.487Z,13.90
2018-10-12T22:52:32.027Z,13.90
2018-10-12T22:55:00.399Z,13.80
2018-10-12T22:57:28.787Z,13.80
2018-10-12T22:59:57.189Z,13.70
2018-10-12T23:02:25.676Z,13.70
2018-10-12T23:04:54.148Z,13.70
2018-10-12T23:07:22.609Z,13.60
2018-10-12T23:09:51.218Z,13.60
2018-10-12T23:12:19.570Z,13.50
2018-10-12T23:14:47.949Z,13.50
2018-10-12T23:17:16.364Z,13.40
2018-10-12T23:19:44.672Z,13.40
2018-10-12T23:22:13.208Z,13.40
2018-10-12T23:24:41.548Z,13.30
2018-10-12T23:27:09.908Z,13.30
2018-10-12T23:29:38.352Z,13.30
2018-10-12T23:32:06.712Z,13.30
2018-10-12T23:34:35.102Z,13.30
2018-10-12T23:37:03.525Z,13.30
2018-10-12T23:39:32.047Z,13.20
2018-10-12T23:42:00.415Z,13.20
2018-10-12T23:44:28.895Z,13.20
2018-10-12T23:46:57.264Z,13.20
2018-10-12T23:49:25.714Z,13.10
2018-10-12T23:51:58.022Z,13.10
2018-10-12T23:54:31.220Z,13.00
2018-10-12T23:57:04.529Z,13.00
2018-10-12T23:59:37.720Z,13.00
